Paskenta, California
Current Conditions -  °F | °C
As of 2:54 AM on Friday 24 Oct 2014 (Local Time) from KRBL Reporting Station
Clear Clear  
Wind Chill: 57°   Ceiling: Unl
Heat Index: 57°   Visibility: 10mi
Dew Point: 53°   Wind: 6mph
Humidity: 87%   Direction: 330°NNW
Pressure: 30"   Gusts: NA
Location:  39.88°N, 122.55°W
Report Text: KRBL 240954Z AUTO 33005KT 10SM CLR 14/12 A3000 RMK AO2 SLP156 T01390117
Loading
Personal Weather Stations






























Interactive Weather Map
Tropical Storm Tracking
New forecast layout! Learn more

10-Day Weather Forecast

Advertisements
Track Severe Weather on mobile